This is the latest recevied weather packets stored in our database for station/object OE1HTB-13. If no packets are shown the sender has not sent any weather packets the latest 1 day(s).
| Time | Temp. | Humidity | Pressure | Rain* | Wind** | Luminosity | Snow |
|---|---|---|---|---|---|---|---|
| 1778042772 | 14.44° C | 74% | 1007.1 hPa | 0 mm | - | 104 W/m² | - |
| 1778041873 | 14.44° C | 77% | 1007 hPa | 0 mm | - | 62 W/m² | - |
| 1778040972 | 13.89° C | 77% | 1007 hPa | 0 mm | - | 46 W/m² | - |
| 1778038273 | 13.89° C | 78% | 1006.7 hPa | 0 mm | - | 0 W/m² | - |
| 1778037371 | 13.89° C | 77% | 1006.7 hPa | 0 mm | - | 0 W/m² | - |
| 1778035571 | 14.44° C | 76% | 1006.8 hPa | 0 mm | - | 0 W/m² | - |
| 1778034672 | 14.44° C | 76% | 1006.7 hPa | 0 mm | - | 0 W/m² | - |
| 1778033771 | 15° C | 75% | 1006.6 hPa | 0 mm | - | 0 W/m² | - |
| 1778032871 | 15° C | 75% | 1006.5 hPa | 0 mm | - | 0 W/m² | - |
| 1778031971 | 15.56° C | 74% | 1006.4 hPa | 0 mm | - | 0 W/m² | - |
| 1778030170 | 15.56° C | 71% | 1006.1 hPa | 0 mm | - | 0 W/m² | - |
| 1778029270 | 16.11° C | 70% | 1006 hPa | 0 mm | - | 0 W/m² | - |
| 1778028370 | 16.11° C | 69% | 1005.9 hPa | 0 mm | - | 0 W/m² | - |
| 1778027471 | 16.11° C | 68% | 1005.7 hPa | 0 mm | - | 0 W/m² | - |
| 1778026570 | 16.11° C | 67% | 1005.5 hPa | 0 mm | - | 0 W/m² | - |
| 1778025670 | 16.67° C | 66% | 1005.4 hPa | 0 mm | - | 0 W/m² | - |
| 1778022074 | 15.56° C | 70% | 1004.7 hPa | 0 mm | - | 0 W/m² | - |
| 1778020274 | 14.44° C | 71% | 1004.4 hPa | 0 mm | - | 0 W/m² | - |
| 1778019374 | 14.44° C | 70% | 1004.2 hPa | 0 mm | - | 0 W/m² | - |
| 1778017574 | 14.44° C | 68% | 1004.2 hPa | 0 mm | - | 0 W/m² | - |
| 1778016673 | 14.44° C | 67% | 1004.1 hPa | 0 mm | - | 0 W/m² | - |
| 1778014873 | 15° C | 65% | 1004 hPa | 0 mm | - | 0 W/m² | - |
| 1778013973 | 15.56° C | 63% | 1003.7 hPa | 0 mm | - | 0 W/m² | - |
| 1778012173 | 16.11° C | 59% | 1003.3 hPa | 0 mm | - | 0 W/m² | - |
| 1778010372 | 16.67° C | 57% | 1003.3 hPa | 0 mm | - | 0 W/m² | - |
* Rain latest hour (hover to see other rain measurements)
** Current wind speed in m/s (hover to see current wind gust speed)